sensor_id;sensor_type;location;lat;lon;timestamp;P1;durP1;ratioP1;P2;durP2;ratioP2
5819;SDS011;2936;47.348;9.640;2024-03-08T00:01:01;16.65;;;9.30;;
5819;SDS011;2936;47.348;9.640;2024-03-08T00:03:29;22.17;;;9.55;;
5819;SDS011;2936;47.348;9.640;2024-03-08T00:05:58;13.93;;;9.52;;
5819;SDS011;2936;47.348;9.640;2024-03-08T00:08:26;18.88;;;9.38;;
5819;SDS011;2936;47.348;9.640;2024-03-08T00:10:54;19.13;;;10.38;;
5819;SDS011;2936;47.348;9.640;2024-03-08T00:13:24;18.55;;;11.50;;
5819;SDS011;2936;47.348;9.640;2024-03-08T00:15:52;20.17;;;11.38;;
5819;SDS011;2936;47.348;9.640;2024-03-08T00:18:22;20.42;;;10.60;;
5819;SDS011;2936;47.348;9.640;2024-03-08T00:20:50;21.95;;;10.93;;
5819;SDS011;2936;47.348;9.640;2024-03-08T00:23:18;13.40;;;9.50;;
5819;SDS011;2936;47.348;9.640;2024-03-08T00:25:46;16.20;;;9.95;;
5819;SDS011;2936;47.348;9.640;2024-03-08T00:28:14;16.77;;;10.45;;
5819;SDS011;2936;47.348;9.640;2024-03-08T00:30:44;13.43;;;9.35;;
5819;SDS011;2936;47.348;9.640;2024-03-08T00:33:12;22.75;;;10.30;;
5819;SDS011;2936;47.348;9.640;2024-03-08T00:35:39;16.63;;;10.00;;
5819;SDS011;2936;47.348;9.640;2024-03-08T00:38:07;22.17;;;10.90;;
5819;SDS011;2936;47.348;9.640;2024-03-08T00:40:35;11.90;;;9.13;;
5819;SDS011;2936;47.348;9.640;2024-03-08T00:43:03;16.02;;;10.32;;
5819;SDS011;2936;47.348;9.640;2024-03-08T00:45:30;18.90;;;10.88;;
5819;SDS011;2936;47.348;9.640;2024-03-08T00:47:59;14.88;;;10.60;;
5819;SDS011;2936;47.348;9.640;2024-03-08T00:50:27;20.33;;;10.15;;
5819;SDS011;2936;47.348;9.640;2024-03-08T00:52:54;15.82;;;10.93;;
5819;SDS011;2936;47.348;9.640;2024-03-08T00:55:22;17.38;;;9.32;;
5819;SDS011;2936;47.348;9.640;2024-03-08T00:57:50;19.27;;;9.60;;
5819;SDS011;2936;47.348;9.640;2024-03-08T01:00:19;16.90;;;9.15;;
5819;SDS011;2936;47.348;9.640;2024-03-08T01:02:47;20.05;;;10.82;;
5819;SDS011;2936;47.348;9.640;2024-03-08T01:05:16;16.70;;;9.63;;
5819;SDS011;2936;47.348;9.640;2024-03-08T01:07:44;13.82;;;8.88;;
5819;SDS011;2936;47.348;9.640;2024-03-08T01:10:12;14.02;;;10.63;;
5819;SDS011;2936;47.348;9.640;2024-03-08T01:12:40;24.85;;;10.73;;
5819;SDS011;2936;47.348;9.640;2024-03-08T01:15:08;14.70;;;9.02;;
5819;SDS011;2936;47.348;9.640;2024-03-08T01:17:37;17.25;;;9.70;;
5819;SDS011;2936;47.348;9.640;2024-03-08T01:20:05;17.38;;;9.93;;
5819;SDS011;2936;47.348;9.640;2024-03-08T01:22:34;15.07;;;9.57;;
5819;SDS011;2936;47.348;9.640;2024-03-08T01:25:02;11.43;;;9.68;;
5819;SDS011;2936;47.348;9.640;2024-03-08T01:27:30;16.98;;;10.77;;
5819;SDS011;2936;47.348;9.640;2024-03-08T01:29:57;17.30;;;9.48;;
5819;SDS011;2936;47.348;9.640;2024-03-08T01:32:25;16.13;;;9.60;;
5819;SDS011;2936;47.348;9.640;2024-03-08T01:34:53;15.30;;;9.50;;
5819;SDS011;2936;47.348;9.640;2024-03-08T01:37:21;24.25;;;10.90;;
5819;SDS011;2936;47.348;9.640;2024-03-08T01:39:50;14.43;;;8.48;;
5819;SDS011;2936;47.348;9.640;2024-03-08T01:42:17;17.00;;;9.40;;
5819;SDS011;2936;47.348;9.640;2024-03-08T01:44:45;16.20;;;9.95;;
5819;SDS011;2936;47.348;9.640;2024-03-08T01:47:13;16.27;;;9.05;;
5819;SDS011;2936;47.348;9.640;2024-03-08T01:49:42;23.13;;;9.50;;
5819;SDS011;2936;47.348;9.640;2024-03-08T01:52:09;18.38;;;9.95;;
5819;SDS011;2936;47.348;9.640;2024-03-08T01:54:38;22.95;;;11.05;;
5819;SDS011;2936;47.348;9.640;2024-03-08T01:57:08;12.80;;;9.80;;
5819;SDS011;2936;47.348;9.640;2024-03-08T01:59:36;22.92;;;9.98;;
5819;SDS011;2936;47.348;9.640;2024-03-08T02:02:04;14.65;;;9.57;;
5819;SDS011;2936;47.348;9.640;2024-03-08T02:04:34;18.83;;;9.63;;
5819;SDS011;2936;47.348;9.640;2024-03-08T02:07:01;20.60;;;11.52;;
5819;SDS011;2936;47.348;9.640;2024-03-08T02:09:30;17.02;;;9.48;;
5819;SDS011;2936;47.348;9.640;2024-03-08T02:11:57;16.25;;;9.50;;
5819;SDS011;2936;47.348;9.640;2024-03-08T02:14:40;24.75;;;11.05;;
5819;SDS011;2936;47.348;9.640;2024-03-08T02:17:09;21.83;;;11.30;;
5819;SDS011;2936;47.348;9.640;2024-03-08T02:19:37;16.85;;;10.20;;
5819;SDS011;2936;47.348;9.640;2024-03-08T02:22:06;15.30;;;9.52;;
5819;SDS011;2936;47.348;9.640;2024-03-08T02:24:34;23.48;;;10.38;;
5819;SDS011;2936;47.348;9.640;2024-03-08T02:27:02;14.55;;;9.93;;
5819;SDS011;2936;47.348;9.640;2024-03-08T02:29:29;20.08;;;10.30;;
5819;SDS011;2936;47.348;9.640;2024-03-08T02:31:59;16.95;;;9.35;;
5819;SDS011;2936;47.348;9.640;2024-03-08T02:34:28;16.77;;;10.65;;
5819;SDS011;2936;47.348;9.640;2024-03-08T02:36:56;16.40;;;10.75;;
5819;SDS011;2936;47.348;9.640;2024-03-08T02:39:25;18.63;;;9.55;;
5819;SDS011;2936;47.348;9.640;2024-03-08T02:41:53;18.95;;;10.18;;
5819;SDS011;2936;47.348;9.640;2024-03-08T02:44:21;15.05;;;9.48;;
5819;SDS011;2936;47.348;9.640;2024-03-08T02:46:49;12.55;;;8.90;;
5819;SDS011;2936;47.348;9.640;2024-03-08T02:49:16;19.67;;;10.15;;
5819;SDS011;2936;47.348;9.640;2024-03-08T02:51:44;22.15;;;10.57;;
5819;SDS011;2936;47.348;9.640;2024-03-08T02:54:12;25.23;;;10.52;;
5819;SDS011;2936;47.348;9.640;2024-03-08T02:56:43;15.13;;;8.93;;
5819;SDS011;2936;47.348;9.640;2024-03-08T02:59:11;16.02;;;9.95;;
5819;SDS011;2936;47.348;9.640;2024-03-08T03:01:40;19.15;;;9.80;;
5819;SDS011;2936;47.348;9.640;2024-03-08T03:04:08;18.63;;;9.68;;
5819;SDS011;2936;47.348;9.640;2024-03-08T03:06:35;17.02;;;9.63;;
5819;SDS011;2936;47.348;9.640;2024-03-08T03:09:03;15.18;;;8.95;;
5819;SDS011;2936;47.348;9.640;2024-03-08T03:11:31;13.73;;;8.55;;
5819;SDS011;2936;47.348;9.640;2024-03-08T03:14:01;15.35;;;9.85;;
5819;SDS011;2936;47.348;9.640;2024-03-08T03:16:29;18.13;;;9.77;;
5819;SDS011;2936;47.348;9.640;2024-03-08T03:18:57;10.07;;;8.52;;
5819;SDS011;2936;47.348;9.640;2024-03-08T03:21:28;13.30;;;8.82;;
5819;SDS011;2936;47.348;9.640;2024-03-08T03:23:57;11.50;;;8.18;;
5819;SDS011;2936;47.348;9.640;2024-03-08T03:26:26;14.95;;;9.05;;
5819;SDS011;2936;47.348;9.640;2024-03-08T03:28:54;14.52;;;8.15;;
5819;SDS011;2936;47.348;9.640;2024-03-08T03:31:24;24.67;;;9.05;;
5819;SDS011;2936;47.348;9.640;2024-03-08T03:33:52;15.60;;;9.15;;
5819;SDS011;2936;47.348;9.640;2024-03-08T03:36:19;11.27;;;8.18;;
5819;SDS011;2936;47.348;9.640;2024-03-08T03:38:47;19.27;;;8.60;;
5819;SDS011;2936;47.348;9.640;2024-03-08T03:41:17;13.57;;;8.73;;
5819;SDS011;2936;47.348;9.640;2024-03-08T03:43:44;23.45;;;9.07;;
5819;SDS011;2936;47.348;9.640;2024-03-08T03:46:14;12.65;;;8.60;;
5819;SDS011;2936;47.348;9.640;2024-03-08T03:48:44;22.83;;;9.98;;
5819;SDS011;2936;47.348;9.640;2024-03-08T03:51:11;11.27;;;8.50;;
5819;SDS011;2936;47.348;9.640;2024-03-08T03:53:40;12.73;;;8.30;;
5819;SDS011;2936;47.348;9.640;2024-03-08T03:56:08;14.70;;;8.63;;
5819;SDS011;2936;47.348;9.640;2024-03-08T03:58:36;15.82;;;9.00;;
5819;SDS011;2936;47.348;9.640;2024-03-08T04:01:05;17.08;;;8.50;;
5819;SDS011;2936;47.348;9.640;2024-03-08T04:03:33;14.70;;;9.25;;
5819;SDS011;2936;47.348;9.640;2024-03-08T04:06:02;13.20;;;8.60;;
5819;SDS011;2936;47.348;9.640;2024-03-08T04:08:30;18.05;;;9.98;;
5819;SDS011;2936;47.348;9.640;2024-03-08T04:10:59;11.82;;;8.50;;
5819;SDS011;2936;47.348;9.640;2024-03-08T04:13:27;17.83;;;8.40;;
5819;SDS011;2936;47.348;9.640;2024-03-08T04:15:55;14.55;;;8.65;;
5819;SDS011;2936;47.348;9.640;2024-03-08T04:18:23;17.05;;;8.50;;
5819;SDS011;2936;47.348;9.640;2024-03-08T04:20:51;14.75;;;8.50;;
5819;SDS011;2936;47.348;9.640;2024-03-08T04:23:20;13.00;;;8.93;;
5819;SDS011;2936;47.348;9.640;2024-03-08T04:25:48;20.77;;;9.07;;
5819;SDS011;2936;47.348;9.640;2024-03-08T04:28:16;17.23;;;8.52;;
5819;SDS011;2936;47.348;9.640;2024-03-08T04:30:43;23.02;;;10.50;;
5819;SDS011;2936;47.348;9.640;2024-03-08T04:33:11;14.02;;;9.32;;
5819;SDS011;2936;47.348;9.640;2024-03-08T04:35:40;15.50;;;9.10;;
5819;SDS011;2936;47.348;9.640;2024-03-08T04:38:11;15.32;;;8.07;;
5819;SDS011;2936;47.348;9.640;2024-03-08T04:40:42;13.57;;;7.97;;
5819;SDS011;2936;47.348;9.640;2024-03-08T04:43:09;14.32;;;8.15;;
5819;SDS011;2936;47.348;9.640;2024-03-08T04:45:37;12.30;;;8.00;;
5819;SDS011;2936;47.348;9.640;2024-03-08T04:48:06;12.23;;;8.20;;
5819;SDS011;2936;47.348;9.640;2024-03-08T04:50:35;11.52;;;7.88;;
5819;SDS011;2936;47.348;9.640;2024-03-08T04:53:03;15.07;;;7.40;;
5819;SDS011;2936;47.348;9.640;2024-03-08T04:55:33;10.55;;;7.60;;
5819;SDS011;2936;47.348;9.640;2024-03-08T04:58:04;11.88;;;8.00;;
5819;SDS011;2936;47.348;9.640;2024-03-08T05:00:33;11.43;;;7.93;;
5819;SDS011;2936;47.348;9.640;2024-03-08T05:03:00;15.07;;;7.93;;
5819;SDS011;2936;47.348;9.640;2024-03-08T05:05:28;8.63;;;6.80;;
5819;SDS011;2936;47.348;9.640;2024-03-08T05:07:55;15.80;;;8.30;;
5819;SDS011;2936;47.348;9.640;2024-03-08T05:10:23;9.07;;;7.78;;
5819;SDS011;2936;47.348;9.640;2024-03-08T05:12:51;10.82;;;7.60;;
5819;SDS011;2936;47.348;9.640;2024-03-08T05:15:20;10.93;;;6.70;;
5819;SDS011;2936;47.348;9.640;2024-03-08T05:17:48;10.02;;;7.30;;
5819;SDS011;2936;47.348;9.640;2024-03-08T05:20:15;12.27;;;7.88;;
5819;SDS011;2936;47.348;9.640;2024-03-08T05:22:47;10.35;;;7.90;;
5819;SDS011;2936;47.348;9.640;2024-03-08T05:25:16;15.13;;;7.78;;
5819;SDS011;2936;47.348;9.640;2024-03-08T05:27:44;9.80;;;6.40;;
5819;SDS011;2936;47.348;9.640;2024-03-08T05:30:13;11.15;;;7.45;;
5819;SDS011;2936;47.348;9.640;2024-03-08T05:32:43;11.82;;;7.82;;
5819;SDS011;2936;47.348;9.640;2024-03-08T05:35:11;14.95;;;8.00;;
5819;SDS011;2936;47.348;9.640;2024-03-08T05:37:41;17.42;;;10.10;;
5819;SDS011;2936;47.348;9.640;2024-03-08T05:40:09;23.75;;;11.57;;
5819;SDS011;2936;47.348;9.640;2024-03-08T05:42:37;11.02;;;8.43;;
5819;SDS011;2936;47.348;9.640;2024-03-08T05:45:05;17.52;;;9.07;;
5819;SDS011;2936;47.348;9.640;2024-03-08T05:47:33;16.65;;;9.55;;
5819;SDS011;2936;47.348;9.640;2024-03-08T05:50:03;18.45;;;8.43;;
5819;SDS011;2936;47.348;9.640;2024-03-08T05:52:32;14.57;;;8.60;;
5819;SDS011;2936;47.348;9.640;2024-03-08T05:55:00;17.27;;;7.97;;
5819;SDS011;2936;47.348;9.640;2024-03-08T05:57:28;16.92;;;8.95;;
5819;SDS011;2936;47.348;9.640;2024-03-08T05:59:56;13.40;;;9.02;;
5819;SDS011;2936;47.348;9.640;2024-03-08T06:02:23;20.27;;;10.27;;
5819;SDS011;2936;47.348;9.640;2024-03-08T06:04:51;14.30;;;9.60;;
5819;SDS011;2936;47.348;9.640;2024-03-08T06:07:21;12.98;;;8.93;;
5819;SDS011;2936;47.348;9.640;2024-03-08T06:09:48;17.55;;;10.18;;
5819;SDS011;2936;47.348;9.640;2024-03-08T06:12:16;35.72;;;11.60;;
5819;SDS011;2936;47.348;9.640;2024-03-08T06:14:44;18.08;;;11.30;;
5819;SDS011;2936;47.348;9.640;2024-03-08T06:17:12;25.90;;;11.60;;
5819;SDS011;2936;47.348;9.640;2024-03-08T06:19:40;13.82;;;9.40;;
5819;SDS011;2936;47.348;9.640;2024-03-08T06:22:07;22.35;;;12.32;;
5819;SDS011;2936;47.348;9.640;2024-03-08T06:24:37;20.13;;;11.75;;
5819;SDS011;2936;47.348;9.640;2024-03-08T06:27:05;24.77;;;12.52;;
5819;SDS011;2936;47.348;9.640;2024-03-08T06:29:35;27.40;;;14.63;;
5819;SDS011;2936;47.348;9.640;2024-03-08T06:32:02;45.42;;;24.17;;
5819;SDS011;2936;47.348;9.640;2024-03-08T06:34:32;25.17;;;16.17;;
5819;SDS011;2936;47.348;9.640;2024-03-08T06:37:01;21.13;;;12.98;;
5819;SDS011;2936;47.348;9.640;2024-03-08T06:39:28;34.75;;;13.95;;
5819;SDS011;2936;47.348;9.640;2024-03-08T06:41:59;18.02;;;11.65;;
5819;SDS011;2936;47.348;9.640;2024-03-08T06:44:27;20.90;;;11.82;;
5819;SDS011;2936;47.348;9.640;2024-03-08T06:46:54;19.85;;;11.95;;
5819;SDS011;2936;47.348;9.640;2024-03-08T06:49:21;21.80;;;12.93;;
5819;SDS011;2936;47.348;9.640;2024-03-08T06:51:49;18.33;;;12.75;;
5819;SDS011;2936;47.348;9.640;2024-03-08T06:54:17;24.83;;;13.13;;
5819;SDS011;2936;47.348;9.640;2024-03-08T06:56:44;27.75;;;13.90;;
5819;SDS011;2936;47.348;9.640;2024-03-08T06:59:14;34.30;;;13.00;;
5819;SDS011;2936;47.348;9.640;2024-03-08T07:01:43;20.10;;;13.25;;
5819;SDS011;2936;47.348;9.640;2024-03-08T07:04:11;27.42;;;13.45;;
5819;SDS011;2936;47.348;9.640;2024-03-08T07:06:39;19.77;;;12.20;;
5819;SDS011;2936;47.348;9.640;2024-03-08T07:09:07;23.17;;;13.75;;
5819;SDS011;2936;47.348;9.640;2024-03-08T07:11:35;20.42;;;12.00;;
5819;SDS011;2936;47.348;9.640;2024-03-08T07:14:03;25.42;;;12.93;;
5819;SDS011;2936;47.348;9.640;2024-03-08T07:16:33;18.73;;;11.85;;
5819;SDS011;2936;47.348;9.640;2024-03-08T07:19:02;24.27;;;11.60;;
5819;SDS011;2936;47.348;9.640;2024-03-08T07:21:30;20.17;;;12.55;;
5819;SDS011;2936;47.348;9.640;2024-03-08T07:23:58;25.25;;;12.63;;
5819;SDS011;2936;47.348;9.640;2024-03-08T07:26:53;26.42;;;13.60;;
5819;SDS011;2936;47.348;9.640;2024-03-08T07:29:21;22.08;;;12.77;;
5819;SDS011;2936;47.348;9.640;2024-03-08T07:31:48;26.63;;;14.15;;
5819;SDS011;2936;47.348;9.640;2024-03-08T07:34:21;28.58;;;13.68;;
5819;SDS011;2936;47.348;9.640;2024-03-08T07:36:48;18.90;;;12.38;;
5819;SDS011;2936;47.348;9.640;2024-03-08T07:39:16;23.48;;;10.60;;
5819;SDS011;2936;47.348;9.640;2024-03-08T07:41:44;27.10;;;11.77;;
5819;SDS011;2936;47.348;9.640;2024-03-08T07:44:15;17.20;;;11.40;;
5819;SDS011;2936;47.348;9.640;2024-03-08T07:46:43;21.80;;;11.55;;
5819;SDS011;2936;47.348;9.640;2024-03-08T07:49:11;18.52;;;11.30;;
5819;SDS011;2936;47.348;9.640;2024-03-08T07:51:40;34.78;;;13.52;;
5819;SDS011;2936;47.348;9.640;2024-03-08T07:54:07;22.55;;;13.38;;
5819;SDS011;2936;47.348;9.640;2024-03-08T07:56:36;39.30;;;15.23;;
5819;SDS011;2936;47.348;9.640;2024-03-08T07:59:03;37.50;;;13.63;;
5819;SDS011;2936;47.348;9.640;2024-03-08T08:01:34;26.48;;;12.90;;
5819;SDS011;2936;47.348;9.640;2024-03-08T08:04:01;17.67;;;12.68;;
5819;SDS011;2936;47.348;9.640;2024-03-08T08:06:30;20.63;;;11.65;;
5819;SDS011;2936;47.348;9.640;2024-03-08T08:08:58;24.27;;;11.05;;
5819;SDS011;2936;47.348;9.640;2024-03-08T08:11:26;21.75;;;11.57;;
5819;SDS011;2936;47.348;9.640;2024-03-08T08:13:54;15.10;;;9.25;;
5819;SDS011;2936;47.348;9.640;2024-03-08T08:16:24;12.68;;;8.50;;
5819;SDS011;2936;47.348;9.640;2024-03-08T08:18:54;19.92;;;8.05;;
5819;SDS011;2936;47.348;9.640;2024-03-08T08:21:21;17.38;;;9.80;;
5819;SDS011;2936;47.348;9.640;2024-03-08T08:23:50;10.80;;;8.77;;
5819;SDS011;2936;47.348;9.640;2024-03-08T08:26:18;12.02;;;9.45;;
5819;SDS011;2936;47.348;9.640;2024-03-08T08:28:47;22.23;;;10.07;;
5819;SDS011;2936;47.348;9.640;2024-03-08T08:31:18;18.02;;;9.15;;
5819;SDS011;2936;47.348;9.640;2024-03-08T08:33:46;13.65;;;9.35;;
5819;SDS011;2936;47.348;9.640;2024-03-08T08:36:16;20.73;;;8.95;;
5819;SDS011;2936;47.348;9.640;2024-03-08T08:38:43;11.60;;;9.18;;
5819;SDS011;2936;47.348;9.640;2024-03-08T08:41:11;16.92;;;10.55;;
5819;SDS011;2936;47.348;9.640;2024-03-08T08:43:39;24.65;;;11.40;;
5819;SDS011;2936;47.348;9.640;2024-03-08T08:46:09;23.35;;;10.40;;
5819;SDS011;2936;47.348;9.640;2024-03-08T08:48:38;16.30;;;10.00;;
5819;SDS011;2936;47.348;9.640;2024-03-08T08:51:06;16.42;;;10.98;;
5819;SDS011;2936;47.348;9.640;2024-03-08T08:53:39;29.40;;;11.05;;
5819;SDS011;2936;47.348;9.640;2024-03-08T08:56:08;24.17;;;10.10;;
5819;SDS011;2936;47.348;9.640;2024-03-08T08:58:38;15.68;;;9.20;;
5819;SDS011;2936;47.348;9.640;2024-03-08T09:01:06;22.08;;;11.52;;
5819;SDS011;2936;47.348;9.640;2024-03-08T09:03:35;26.63;;;12.30;;
5819;SDS011;2936;47.348;9.640;2024-03-08T09:06:05;32.40;;;12.05;;
5819;SDS011;2936;47.348;9.640;2024-03-08T09:08:35;18.10;;;11.00;;
5819;SDS011;2936;47.348;9.640;2024-03-08T09:11:04;18.75;;;10.90;;
5819;SDS011;2936;47.348;9.640;2024-03-08T09:13:32;18.63;;;11.23;;
5819;SDS011;2936;47.348;9.640;2024-03-08T09:16:02;22.48;;;10.45;;
5819;SDS011;2936;47.348;9.640;2024-03-08T09:18:31;26.25;;;11.82;;
5819;SDS011;2936;47.348;9.640;2024-03-08T09:21:00;21.50;;;11.50;;
5819;SDS011;2936;47.348;9.640;2024-03-08T09:23:28;18.00;;;9.98;;
5819;SDS011;2936;47.348;9.640;2024-03-08T09:25:56;21.15;;;11.50;;
5819;SDS011;2936;47.348;9.640;2024-03-08T09:28:26;21.50;;;12.10;;
5819;SDS011;2936;47.348;9.640;2024-03-08T09:30:54;19.55;;;12.77;;
5819;SDS011;2936;47.348;9.640;2024-03-08T09:33:21;21.60;;;12.63;;
5819;SDS011;2936;47.348;9.640;2024-03-08T09:35:49;22.42;;;11.90;;
5819;SDS011;2936;47.348;9.640;2024-03-08T09:38:16;18.48;;;12.10;;
5819;SDS011;2936;47.348;9.640;2024-03-08T09:40:46;17.50;;;10.65;;
5819;SDS011;2936;47.348;9.640;2024-03-08T09:43:14;21.75;;;10.98;;
5819;SDS011;2936;47.348;9.640;2024-03-08T09:45:45;21.50;;;12.10;;
5819;SDS011;2936;47.348;9.640;2024-03-08T09:48:14;21.55;;;11.45;;
5819;SDS011;2936;47.348;9.640;2024-03-08T09:50:44;18.05;;;10.85;;
5819;SDS011;2936;47.348;9.640;2024-03-08T09:53:12;21.20;;;12.23;;
5819;SDS011;2936;47.348;9.640;2024-03-08T09:55:39;24.02;;;11.60;;
5819;SDS011;2936;47.348;9.640;2024-03-08T09:58:09;17.35;;;10.98;;
5819;SDS011;2936;47.348;9.640;2024-03-08T10:00:57;39.70;;;13.00;;
5819;SDS011;2936;47.348;9.640;2024-03-08T10:03:27;21.60;;;12.57;;
5819;SDS011;2936;47.348;9.640;2024-03-08T10:05:56;20.33;;;12.77;;
5819;SDS011;2936;47.348;9.640;2024-03-08T10:08:25;26.85;;;12.88;;
5819;SDS011;2936;47.348;9.640;2024-03-08T10:10:54;25.70;;;13.07;;
5819;SDS011;2936;47.348;9.640;2024-03-08T10:13:23;27.80;;;13.30;;
5819;SDS011;2936;47.348;9.640;2024-03-08T10:15:53;18.95;;;11.20;;
5819;SDS011;2936;47.348;9.640;2024-03-08T10:18:22;23.83;;;14.15;;
5819;SDS011;2936;47.348;9.640;2024-03-08T10:21:01;20.50;;;11.50;;
5819;SDS011;2936;47.348;9.640;2024-03-08T10:23:30;19.00;;;10.90;;
5819;SDS011;2936;47.348;9.640;2024-03-08T10:26:08;33.83;;;12.43;;
5819;SDS011;2936;47.348;9.640;2024-03-08T10:28:36;24.20;;;12.60;;
5819;SDS011;2936;47.348;9.640;2024-03-08T10:31:05;25.60;;;11.85;;
5819;SDS011;2936;47.348;9.640;2024-03-08T10:33:35;15.30;;;10.88;;
5819;SDS011;2936;47.348;9.640;2024-03-08T10:36:05;28.08;;;13.32;;
5819;SDS011;2936;47.348;9.640;2024-03-08T10:38:34;29.13;;;11.57;;
5819;SDS011;2936;47.348;9.640;2024-03-08T10:41:04;19.15;;;11.25;;
5819;SDS011;2936;47.348;9.640;2024-03-08T10:43:33;23.42;;;11.88;;
5819;SDS011;2936;47.348;9.640;2024-03-08T10:46:08;26.02;;;12.30;;
5819;SDS011;2936;47.348;9.640;2024-03-08T10:48:43;20.08;;;12.55;;
5819;SDS011;2936;47.348;9.640;2024-03-08T10:51:11;23.27;;;12.48;;
5819;SDS011;2936;47.348;9.640;2024-03-08T10:53:39;27.80;;;12.82;;
5819;SDS011;2936;47.348;9.640;2024-03-08T10:56:07;25.58;;;13.20;;
5819;SDS011;2936;47.348;9.640;2024-03-08T10:58:35;33.22;;;10.98;;
5819;SDS011;2936;47.348;9.640;2024-03-08T11:01:03;28.73;;;12.75;;
5819;SDS011;2936;47.348;9.640;2024-03-08T11:03:45;24.90;;;11.98;;
5819;SDS011;2936;47.348;9.640;2024-03-08T11:06:14;21.67;;;11.70;;
5819;SDS011;2936;47.348;9.640;2024-03-08T11:08:42;20.73;;;10.60;;
5819;SDS011;2936;47.348;9.640;2024-03-08T11:11:23;22.67;;;12.07;;
5819;SDS011;2936;47.348;9.640;2024-03-08T11:13:53;23.80;;;11.52;;
5819;SDS011;2936;47.348;9.640;2024-03-08T11:19:23;23.77;;;12.27;;
5819;SDS011;2936;47.348;9.640;2024-03-08T11:21:57;19.00;;;11.25;;
5819;SDS011;2936;47.348;9.640;2024-03-08T11:24:25;19.73;;;11.75;;
5819;SDS011;2936;47.348;9.640;2024-03-08T11:26:57;22.10;;;11.40;;
5819;SDS011;2936;47.348;9.640;2024-03-08T11:29:32;20.35;;;12.57;;
5819;SDS011;2936;47.348;9.640;2024-03-08T11:32:09;18.73;;;11.70;;
5819;SDS011;2936;47.348;9.640;2024-03-08T11:34:39;20.98;;;11.07;;
5819;SDS011;2936;47.348;9.640;2024-03-08T11:37:10;21.75;;;12.10;;
5819;SDS011;2936;47.348;9.640;2024-03-08T11:39:39;16.10;;;11.20;;
5819;SDS011;2936;47.348;9.640;2024-03-08T11:42:07;24.92;;;10.95;;
5819;SDS011;2936;47.348;9.640;2024-03-08T11:44:36;18.13;;;10.05;;
5819;SDS011;2936;47.348;9.640;2024-03-08T11:47:08;24.65;;;10.60;;
5819;SDS011;2936;47.348;9.640;2024-03-08T11:49:38;16.08;;;9.73;;
5819;SDS011;2936;47.348;9.640;2024-03-08T11:52:10;18.05;;;11.70;;
5819;SDS011;2936;47.348;9.640;2024-03-08T11:54:39;14.45;;;8.68;;
5819;SDS011;2936;47.348;9.640;2024-03-08T11:57:07;17.27;;;10.18;;
5819;SDS011;2936;47.348;9.640;2024-03-08T11:59:35;19.15;;;9.85;;
5819;SDS011;2936;47.348;9.640;2024-03-08T12:02:03;17.95;;;10.70;;
5819;SDS011;2936;47.348;9.640;2024-03-08T12:04:32;22.88;;;11.85;;
5819;SDS011;2936;47.348;9.640;2024-03-08T12:07:03;20.08;;;10.45;;
5819;SDS011;2936;47.348;9.640;2024-03-08T12:09:34;22.27;;;11.48;;
5819;SDS011;2936;47.348;9.640;2024-03-08T12:12:03;13.15;;;9.15;;
5819;SDS011;2936;47.348;9.640;2024-03-08T12:14:31;11.48;;;10.25;;
5819;SDS011;2936;47.348;9.640;2024-03-08T12:16:59;16.58;;;8.90;;
5819;SDS011;2936;47.348;9.640;2024-03-08T12:19:28;13.45;;;10.10;;
5819;SDS011;2936;47.348;9.640;2024-03-08T12:21:56;18.85;;;10.82;;
5819;SDS011;2936;47.348;9.640;2024-03-08T12:24:25;17.08;;;10.18;;
5819;SDS011;2936;47.348;9.640;2024-03-08T12:26:52;11.63;;;9.02;;
5819;SDS011;2936;47.348;9.640;2024-03-08T12:29:24;16.52;;;10.02;;
5819;SDS011;2936;47.348;9.640;2024-03-08T12:31:53;21.20;;;11.13;;
5819;SDS011;2936;47.348;9.640;2024-03-08T12:34:23;26.58;;;10.15;;
5819;SDS011;2936;47.348;9.640;2024-03-08T12:36:52;12.48;;;9.85;;
5819;SDS011;2936;47.348;9.640;2024-03-08T12:39:20;14.75;;;9.70;;
5819;SDS011;2936;47.348;9.640;2024-03-08T12:41:53;20.20;;;8.63;;
5819;SDS011;2936;47.348;9.640;2024-03-08T12:44:22;20.73;;;11.20;;
5819;SDS011;2936;47.348;9.640;2024-03-08T12:46:50;28.83;;;10.88;;
5819;SDS011;2936;47.348;9.640;2024-03-08T12:49:19;12.25;;;9.05;;
5819;SDS011;2936;47.348;9.640;2024-03-08T12:51:47;19.33;;;11.30;;
5819;SDS011;2936;47.348;9.640;2024-03-08T12:54:17;19.77;;;11.27;;
5819;SDS011;2936;47.348;9.640;2024-03-08T12:56:48;14.68;;;10.30;;
5819;SDS011;2936;47.348;9.640;2024-03-08T12:59:20;24.58;;;11.60;;
5819;SDS011;2936;47.348;9.640;2024-03-08T13:01:48;15.15;;;11.00;;
5819;SDS011;2936;47.348;9.640;2024-03-08T13:04:16;17.77;;;11.60;;
5819;SDS011;2936;47.348;9.640;2024-03-08T13:06:46;16.00;;;10.68;;
5819;SDS011;2936;47.348;9.640;2024-03-08T13:09:15;17.58;;;9.95;;
5819;SDS011;2936;47.348;9.640;2024-03-08T13:11:45;14.10;;;10.07;;
5819;SDS011;2936;47.348;9.640;2024-03-08T13:14:13;15.38;;;10.77;;
5819;SDS011;2936;47.348;9.640;2024-03-08T13:16:43;16.77;;;11.15;;
5819;SDS011;2936;47.348;9.640;2024-03-08T13:19:13;28.08;;;11.30;;
5819;SDS011;2936;47.348;9.640;2024-03-08T13:21:41;17.77;;;10.27;;
5819;SDS011;2936;47.348;9.640;2024-03-08T13:24:08;18.85;;;10.75;;
5819;SDS011;2936;47.348;9.640;2024-03-08T13:26:41;19.90;;;11.63;;
5819;SDS011;2936;47.348;9.640;2024-03-08T13:29:10;24.52;;;11.18;;
5819;SDS011;2936;47.348;9.640;2024-03-08T13:31:40;13.93;;;9.93;;
5819;SDS011;2936;47.348;9.640;2024-03-08T13:34:09;13.77;;;10.38;;
5819;SDS011;2936;47.348;9.640;2024-03-08T13:36:37;12.52;;;9.68;;
5819;SDS011;2936;47.348;9.640;2024-03-08T13:39:09;20.88;;;10.63;;
5819;SDS011;2936;47.348;9.640;2024-03-08T13:41:40;12.38;;;9.75;;
5819;SDS011;2936;47.348;9.640;2024-03-08T13:44:09;14.60;;;10.45;;
5819;SDS011;2936;47.348;9.640;2024-03-08T13:46:37;19.70;;;11.88;;
5819;SDS011;2936;47.348;9.640;2024-03-08T13:49:05;19.27;;;11.48;;
5819;SDS011;2936;47.348;9.640;2024-03-08T13:51:36;16.27;;;11.00;;
5819;SDS011;2936;47.348;9.640;2024-03-08T13:54:04;16.48;;;9.90;;
5819;SDS011;2936;47.348;9.640;2024-03-08T13:56:33;15.10;;;10.38;;
5819;SDS011;2936;47.348;9.640;2024-03-08T13:59:02;11.18;;;8.65;;
5819;SDS011;2936;47.348;9.640;2024-03-08T14:01:30;17.25;;;10.40;;
5819;SDS011;2936;47.348;9.640;2024-03-08T14:04:01;16.90;;;10.90;;
5819;SDS011;2936;47.348;9.640;2024-03-08T14:06:29;17.67;;;10.02;;
5819;SDS011;2936;47.348;9.640;2024-03-08T14:08:57;18.05;;;9.63;;
5819;SDS011;2936;47.348;9.640;2024-03-08T14:11:26;20.40;;;11.20;;
5819;SDS011;2936;47.348;9.640;2024-03-08T14:13:54;18.50;;;12.10;;
5819;SDS011;2936;47.348;9.640;2024-03-08T14:16:22;13.55;;;9.30;;
5819;SDS011;2936;47.348;9.640;2024-03-08T14:18:50;12.48;;;10.00;;
5819;SDS011;2936;47.348;9.640;2024-03-08T14:21:17;18.67;;;10.88;;
5819;SDS011;2936;47.348;9.640;2024-03-08T14:23:45;18.58;;;11.73;;
5819;SDS011;2936;47.348;9.640;2024-03-08T14:26:15;18.65;;;10.40;;
5819;SDS011;2936;47.348;9.640;2024-03-08T14:28:43;18.63;;;11.32;;
5819;SDS011;2936;47.348;9.640;2024-03-08T14:31:11;18.50;;;11.40;;
5819;SDS011;2936;47.348;9.640;2024-03-08T14:33:38;19.73;;;10.88;;
5819;SDS011;2936;47.348;9.640;2024-03-08T14:36:08;19.45;;;10.65;;
5819;SDS011;2936;47.348;9.640;2024-03-08T14:38:38;14.60;;;10.15;;
5819;SDS011;2936;47.348;9.640;2024-03-08T14:41:06;18.52;;;11.90;;
5819;SDS011;2936;47.348;9.640;2024-03-08T14:43:35;15.93;;;10.85;;
5819;SDS011;2936;47.348;9.640;2024-03-08T14:46:03;17.80;;;11.43;;
5819;SDS011;2936;47.348;9.640;2024-03-08T14:48:31;16.55;;;11.40;;
5819;SDS011;2936;47.348;9.640;2024-03-08T14:51:02;16.98;;;11.52;;
5819;SDS011;2936;47.348;9.640;2024-03-08T14:53:30;14.70;;;10.27;;
5819;SDS011;2936;47.348;9.640;2024-03-08T14:55:57;13.98;;;10.35;;
5819;SDS011;2936;47.348;9.640;2024-03-08T14:58:25;22.02;;;11.57;;
5819;SDS011;2936;47.348;9.640;2024-03-08T15:00:55;14.75;;;10.70;;
5819;SDS011;2936;47.348;9.640;2024-03-08T15:03:25;15.85;;;10.57;;
5819;SDS011;2936;47.348;9.640;2024-03-08T15:05:54;18.63;;;11.85;;